Allegheny County Airport Pittsburgh US
ICAO: KAGC
IATA: AGC
Category: Medium
Scheduled Services: No

Elevation: 1252 ft
TransAlt. 18000 ft.

Airport Communications:
PITTSBURGH APP/DEP:119.35
ATIS:120.55
GND:121.7
ALTOONA RDO:122.2
TWR:121.1
UNICOM:122.95

KAGC Zoom In..

If you have problems with the map follow the link
https://www.worldairports.se/pages/airport.php?
ICAO=KAGC

Runways:

(A) RW 10 length 6501 ft width 150 ft
ILS 109.10 / hdg 99

(B) RW 13 length 3825 ft width 100 ft
---- / hdg 129

(C) RW 28 length 6501 ft width 150 ft
ILS 109.10 / hdg 279

(D) RW 31 length 3825 ft width 100 ft
---- / hdg 309

Location; KAGC
Day. 28 / Time. 12.53 Zulu
* Altimeter: 29.97
* Temperature: 00° c. 32°f.
* Wind from: 290° Speed 07 kn.
Dewpoint: -02° c.
Visibility: 8 Statute Miles.
Clouds: Overcast 800 ft.

KAGC 281253Z 29007KT 8SM OVC008 00/M02 A2997 RMK AO2 SLP164 T00001017


Wind From 290°
Speed 07 kn.

 
 
jpsmedia worldairports.se 2020   terms of use